Time;durP1;ratioP1;P1;durP2;ratioP2;P2;SDS_P1;SDS_P2;PMS_P1;PMS_P2;Temp;Humidity;BMP_temperature;BMP_pressure;BME280_temperature;BME280_humidity;BME280_pressure;Samples;Min_cycle;Max_cycle;Signal;HPM_P1;HPM_P2
2022/07/31 00:00:22;;;;;;;4.03;2.10;;;;;;;24.82;39.55;100767.66;4987586;28;20245;-59
2022/07/31 00:02:51;;;;;;;6.55;2.13;;;;;;;24.79;39.85;100763.53;4987111;28;20305;-59
2022/07/31 00:05:18;;;;;;;4.43;2.05;;;;;;;24.81;39.86;100761.41;4983770;28;20209;-59
2022/07/31 00:07:46;;;;;;;6.35;2.10;;;;;;;24.80;40.03;100761.66;4982431;28;20237;-59
2022/07/31 00:10:14;;;;;;;5.80;2.55;;;;;;;24.73;39.61;100761.75;4982574;28;20206;-59
2022/07/31 00:12:43;;;;;;;6.10;2.50;;;;;;;24.72;40.08;100760.91;4982201;28;20242;-58
2022/07/31 00:15:12;;;;;;;7.30;2.35;;;;;;;24.66;39.92;100767.28;4987524;28;20237;-58
2022/07/31 00:17:41;;;;;;;7.15;2.30;;;;;;;24.63;39.76;100759.59;4985071;28;20301;-59
2022/07/31 00:20:12;;;;;;;7.45;2.83;;;;;;;24.53;40.27;100761.25;4983619;28;20584;-59
2022/07/31 00:22:39;;;;;;;4.78;2.00;;;;;;;24.46;40.89;100765.94;4983046;28;20214;-58
2022/07/31 00:25:09;;;;;;;4.80;2.40;;;;;;;24.42;41.33;100770.19;4982539;28;20256;-58
2022/07/31 00:27:36;;;;;;;6.95;2.50;;;;;;;24.41;41.54;100763.09;4983357;28;20214;-59
2022/07/31 00:30:07;;;;;;;4.68;2.30;;;;;;;24.40;41.33;100761.44;4984220;28;20220;-59
2022/07/31 00:32:35;;;;;;;5.22;2.25;;;;;;;24.42;41.28;100759.34;4983031;28;20206;-59
2022/07/31 00:35:03;;;;;;;6.97;2.60;;;;;;;24.46;41.14;100761.34;4984014;28;20591;-58
2022/07/31 00:37:31;;;;;;;10.50;2.40;;;;;;;24.47;41.21;100751.31;4983057;28;20218;-58
2022/07/31 00:39:59;;;;;;;6.60;2.67;;;;;;;24.37;41.88;100766.28;4985847;28;20216;-56
2022/07/31 00:42:26;;;;;;;5.00;2.72;;;;;;;24.24;42.10;100758.34;4985873;28;20201;-58
2022/07/31 00:44:54;;;;;;;6.28;2.35;;;;;;;24.13;41.91;100753.69;4987294;28;20202;-59
2022/07/31 00:47:23;;;;;;;5.07;2.40;;;;;;;24.07;42.41;100756.50;4984471;28;20310;-60
2022/07/31 00:49:52;;;;;;;6.57;2.35;;;;;;;24.06;42.40;100761.09;4982873;28;20210;-58
2022/07/31 00:52:20;;;;;;;8.40;2.85;;;;;;;24.12;42.01;100754.72;4984967;28;20293;-58
2022/07/31 00:54:48;;;;;;;5.60;2.30;;;;;;;24.17;41.92;100762.19;4984857;28;20234;-59
2022/07/31 00:57:16;;;;;;;5.90;2.80;;;;;;;24.20;42.06;100757.13;4988958;28;20582;-60
2022/07/31 00:59:44;;;;;;;6.43;2.47;;;;;;;24.14;41.78;100749.09;4992198;28;20289;-59
2022/07/31 01:02:12;;;;;;;4.63;2.67;;;;;;;24.11;41.71;100746.81;4986804;28;20591;-58
2022/07/31 01:04:41;;;;;;;6.93;2.70;;;;;;;24.15;41.86;100748.03;4988208;28;20292;-59
2022/07/31 01:07:12;;;;;;;6.53;2.80;;;;;;;24.10;42.11;100751.41;4986910;28;20206;-60
2022/07/31 01:09:40;;;;;;;5.63;2.72;;;;;;;24.11;42.29;100752.25;4993173;28;20224;-60
2022/07/31 01:12:14;;;;;;;5.43;2.53;;;;;;;24.09;42.43;100749.78;4985313;28;20256;-60
2022/07/31 01:14:47;;;;;;;4.88;3.08;;;;;;;23.97;42.80;100751.63;4987058;28;20233;-59
2022/07/31 01:17:16;;;;;;;8.45;3.30;;;;;;;23.92;42.76;100754.19;4988087;28;20213;-57
2022/07/31 01:19:47;;;;;;;4.65;2.72;;;;;;;23.91;42.88;100753.38;4989563;28;20214;-57
2022/07/31 01:22:40;;;;;;;9.10;3.22;;;;;;;23.91;42.87;100747.94;4989650;28;20297;-59
2022/07/31 01:25:12;;;;;;;5.78;3.25;;;;;;;23.91;42.56;100752.53;4987929;28;20303;-59
2022/07/31 01:27:59;;;;;;;7.07;2.63;;;;;;;23.92;43.07;100744.16;4988732;28;20416;-60
2022/07/31 01:30:33;;;;;;;5.28;2.63;;;;;;;23.93;42.96;100742.28;4993604;28;20213;-58
2022/07/31 01:33:07;;;;;;;5.85;2.70;;;;;;;23.89;42.89;100746.53;4982743;28;20201;-58
2022/07/31 01:35:41;;;;;;;6.90;3.30;;;;;;;23.90;42.94;100749.00;4986420;28;20741;-59
2022/07/31 01:38:13;;;;;;;6.78;3.42;;;;;;;23.86;43.34;100746.97;4984211;28;20209;-60
2022/07/31 01:40:44;;;;;;;6.80;2.80;;;;;;;23.86;43.80;100738.84;4983746;28;20214;-59
2022/07/31 01:43:16;;;;;;;4.18;2.40;;;;;;;23.83;44.11;100737.44;4982403;28;20218;-60
2022/07/31 01:45:50;;;;;;;6.15;2.97;;;;;;;23.71;44.21;100730.31;4987682;28;20213;-60
2022/07/31 01:48:18;;;;;;;4.53;2.28;;;;;;;23.66;44.29;100733.69;4984301;28;20206;-60
2022/07/31 01:50:48;;;;;;;5.43;2.78;;;;;;;23.59;44.19;100725.66;4985517;28;20667;-60
2022/07/31 01:53:19;;;;;;;5.00;2.75;;;;;;;23.54;44.41;100730.94;4983499;28;20330;-59
2022/07/31 01:55:48;;;;;;;5.10;2.50;;;;;;;23.64;44.13;100733.09;4989251;28;20230;-59
2022/07/31 01:58:34;;;;;;;7.57;3.03;;;;;;;23.69;43.37;100737.81;4985863;28;20614;-60
2022/07/31 02:01:07;;;;;;;10.75;2.35;;;;;;;23.70;43.24;100734.88;4985125;28;20596;-59
2022/07/31 02:03:37;;;;;;;5.03;2.40;;;;;;;23.68;42.96;100737.00;4984024;28;20619;-60
2022/07/31 02:06:13;;;;;;;6.95;2.80;;;;;;;23.65;43.12;100742.06;4983036;28;20718;-59
2022/07/31 02:08:43;;;;;;;5.75;2.70;;;;;;;23.60;42.95;100737.31;4984040;28;20288;-59
2022/07/31 02:11:13;;;;;;;4.60;2.40;;;;;;;23.53;42.78;100728.44;4982584;28;20238;-60
2022/07/31 02:13:41;;;;;;;4.00;2.42;;;;;;;23.48;43.06;100730.97;4983365;28;20202;-59
2022/07/31 02:16:11;;;;;;;6.33;2.73;;;;;;;23.48;43.25;100731.81;4984075;28;20234;-60
2022/07/31 02:18:41;;;;;;;6.80;2.50;;;;;;;23.46;43.25;100727.66;4985313;28;20630;-60
2022/07/31 02:21:09;;;;;;;5.65;2.60;;;;;;;23.44;43.12;100727.88;4982715;28;20218;-60
2022/07/31 02:23:37;;;;;;;6.03;2.27;;;;;;;23.48;43.29;100726.41;4988894;28;20215;-60
2022/07/31 02:26:06;;;;;;;3.77;2.33;;;;;;;23.41;43.22;100717.50;4987284;28;20248;-60
2022/07/31 02:28:37;;;;;;;4.80;2.63;;;;;;;23.31;43.58;100716.41;4984440;28;20221;-59
2022/07/31 02:31:09;;;;;;;4.87;2.20;;;;;;;23.15;44.04;100707.81;4983201;28;20225;-59
2022/07/31 02:33:39;;;;;;;8.70;2.40;;;;;;;23.03;44.19;100716.91;4984935;28;20337;-59
2022/07/31 02:36:10;;;;;;;7.60;2.60;;;;;;;23.05;44.72;100717.50;4984379;28;20230;-60
2022/07/31 02:38:39;;;;;;;6.33;2.67;;;;;;;23.04;44.38;100710.44;4985214;28;20394;-60
2022/07/31 02:41:10;;;;;;;4.07;2.33;;;;;;;23.07;44.19;100712.69;4982040;28;20229;-60
2022/07/31 02:43:39;;;;;;;5.50;2.50;;;;;;;23.10;44.66;100717.66;4985974;28;20732;-60
2022/07/31 02:46:08;;;;;;;5.30;2.47;;;;;;;23.08;44.32;100714.34;4985669;28;20202;-58
2022/07/31 02:48:41;;;;;;;6.03;2.53;;;;;;;23.01;44.65;100709.00;4983528;28;20210;-59
2022/07/31 02:51:09;;;;;;;7.37;2.87;;;;;;;23.05;44.06;100710.19;4982549;28;20214;-60
2022/07/31 02:53:37;;;;;;;4.80;2.37;;;;;;;22.99;44.36;100707.56;4985962;28;20568;-59
2022/07/31 02:56:08;;;;;;;12.07;2.57;;;;;;;22.80;44.96;100699.44;4984242;28;20228;-60
2022/07/31 02:58:37;;;;;;;5.93;3.10;;;;;;;22.66;45.32;100700.59;4985805;28;20659;-59
2022/07/31 03:01:06;;;;;;;7.60;2.50;;;;;;;22.57;45.33;100696.50;4984287;28;20210;-59
2022/07/31 03:03:34;;;;;;;8.77;3.17;;;;;;;22.49;45.72;100696.78;4984134;28;20210;-59
2022/07/31 03:06:03;;;;;;;6.60;2.60;;;;;;;22.49;46.04;100708.41;4984089;28;20217;-59
2022/07/31 03:08:31;;;;;;;5.37;2.13;;;;;;;22.47;46.05;100706.97;4985865;28;20212;-59
2022/07/31 03:10:59;;;;;;;4.33;2.40;;;;;;;22.52;45.89;100697.16;4982883;28;20653;-60
2022/07/31 03:13:29;;;;;;;5.70;2.37;;;;;;;22.58;45.34;100706.28;4984490;28;20212;-60
2022/07/31 03:15:58;;;;;;;8.40;2.57;;;;;;;22.65;45.37;100704.34;4982724;28;20683;-59
2022/07/31 03:18:27;;;;;;;5.47;2.43;;;;;;;22.70;45.15;100712.59;4983491;28;20308;-60
2022/07/31 03:20:56;;;;;;;7.30;2.70;;;;;;;22.64;45.17;100710.78;4984093;28;20549;-60
2022/07/31 03:23:27;;;;;;;3.90;2.50;;;;;;;22.69;45.37;100710.94;4983277;28;20301;-59
2022/07/31 03:25:55;;;;;;;6.73;2.70;;;;;;;22.66;45.52;100703.28;4982365;28;21022;-59
2022/07/31 03:28:23;;;;;;;6.30;2.23;;;;;;;22.61;45.44;100697.69;4989770;28;20214;-58
2022/07/31 03:30:51;;;;;;;7.20;2.60;;;;;;;22.64;45.30;100697.25;4987530;28;20207;-59
2022/07/31 03:33:23;;;;;;;7.53;2.43;;;;;;;22.61;45.41;100697.69;4987091;28;20751;-60
2022/07/31 03:35:52;;;;;;;4.07;2.67;;;;;;;22.62;45.21;100702.06;4985071;28;20210;-60
2022/07/31 03:38:20;;;;;;;6.17;2.63;;;;;;;22.56;45.50;100705.66;4980027;28;20305;-59
2022/07/31 03:41:09;;;;;;;5.20;2.40;;;;;;;22.60;45.80;100701.47;4979937;28;20218;-60
2022/07/31 03:43:38;;;;;;;4.83;2.47;;;;;;;22.59;45.93;100699.81;4979992;28;20226;-60
2022/07/31 03:46:16;;;;;;;5.23;2.63;;;;;;;22.53;46.32;100706.09;4980136;28;20726;-59
2022/07/31 03:48:45;;;;;;;5.50;2.60;;;;;;;22.39;46.50;100712.66;4984365;28;20220;-59
2022/07/31 03:51:13;;;;;;;4.37;2.73;;;;;;;22.41;46.44;100705.16;4983090;28;20268;-60
2022/07/31 03:53:42;;;;;;;4.27;2.53;;;;;;;22.30;46.67;100706.69;4984336;28;20214;-60
2022/07/31 03:56:12;;;;;;;6.87;3.00;;;;;;;22.36;47.13;100711.22;4982370;28;20229;-56
2022/07/31 03:58:40;;;;;;;7.67;2.77;;;;;;;22.48;46.37;100711.34;4982876;28;20201;-60
2022/07/31 04:01:08;;;;;;;6.50;3.13;;;;;;;22.57;46.07;100710.03;4985534;28;20214;-60
2022/07/31 04:03:39;;;;;;;5.33;2.83;;;;;;;22.59;46.19;100715.22;4983001;28;20237;-60
2022/07/31 04:06:07;;;;;;;7.37;2.90;;;;;;;22.60;46.07;100698.78;4984143;28;20651;-59
2022/07/31 04:08:35;;;;;;;7.17;2.70;;;;;;;22.52;46.05;100715.25;4979755;28;20206;-59
2022/07/31 04:11:03;;;;;;;6.40;2.70;;;;;;;22.50;46.43;100711.94;4982871;28;20786;-59
2022/07/31 04:13:32;;;;;;;6.03;2.40;;;;;;;22.38;47.04;100713.69;4965096;28;20203;-60
2022/07/31 04:16:00;;;;;;;7.00;2.87;;;;;;;22.27;47.15;100712.53;4966093;28;20214;-59
2022/07/31 04:18:27;;;;;;;4.53;2.80;;;;;;;22.32;47.13;100710.00;4963857;28;20214;-59
2022/07/31 04:20:55;;;;;;;6.23;2.67;;;;;;;22.27;47.13;100711.69;4964646;28;20210;-58
2022/07/31 04:23:23;;;;;;;6.00;2.70;;;;;;;22.24;47.12;100712.97;4959266;28;20214;-59
2022/07/31 04:25:59;;;;;;;5.97;2.30;;;;;;;22.18;47.33;100713.00;4960741;28;20661;-59
2022/07/31 04:28:27;;;;;;;4.87;2.80;;;;;;;22.26;47.14;100716.25;4961110;28;20207;-58
2022/07/31 04:30:57;;;;;;;7.60;2.70;;;;;;;22.29;47.12;100709.59;4962796;28;20579;-58
2022/07/31 04:33:25;;;;;;;5.80;2.50;;;;;;;22.28;47.36;100718.75;4963038;28;20211;-57
2022/07/31 04:35:53;;;;;;;5.63;2.80;;;;;;;22.42;47.56;100714.94;4960057;28;20211;-58
2022/07/31 04:38:21;;;;;;;5.27;3.20;;;;;;;22.39;47.29;100709.94;4962220;28;20883;-58
2022/07/31 04:40:49;;;;;;;6.73;2.50;;;;;;;22.37;47.83;100712.88;4964965;28;20230;-60
2022/07/31 04:43:17;;;;;;;8.27;2.97;;;;;;;22.37;47.61;100712.03;4963417;28;20250;-60
2022/07/31 04:45:45;;;;;;;6.73;3.03;;;;;;;22.35;47.91;100720.34;4962770;28;20673;-58
2022/07/31 04:48:14;;;;;;;5.03;2.57;;;;;;;22.35;47.39;100724.94;4962086;28;20210;-59
2022/07/31 04:50:42;;;;;;;7.90;3.07;;;;;;;22.32;47.50;100726.22;4960872;28;20229;-57
2022/07/31 04:53:09;;;;;;;7.13;2.50;;;;;;;22.31;47.57;100723.72;4961123;28;20207;-59
2022/07/31 04:55:37;;;;;;;4.97;2.83;;;;;;;22.34;47.68;100720.59;4966592;28;20211;-59
2022/07/31 04:58:05;;;;;;;3.93;2.57;;;;;;;22.38;47.60;100729.91;4962461;28;20242;-59
2022/07/31 05:00:33;;;;;;;5.00;2.90;;;;;;;22.37;47.42;100722.84;4966085;28;20212;-60
2022/07/31 05:03:00;;;;;;;5.50;2.40;;;;;;;22.42;47.03;100723.03;4968471;28;20228;-59
2022/07/31 05:05:29;;;;;;;6.37;2.50;;;;;;;22.46;47.24;100726.94;4963565;28;20331;-59
2022/07/31 05:07:57;;;;;;;7.60;3.07;;;;;;;22.45;47.49;100720.69;4963404;28;20233;-58
2022/07/31 05:13:10;;;;;;;5.43;2.80;;;;;;;22.40;47.48;100731.34;4965594;28;20690;-59
2022/07/31 05:15:38;;;;;;;6.53;2.90;;;;;;;22.44;47.31;100723.63;4963062;28;20915;-59
2022/07/31 05:18:06;;;;;;;9.10;2.60;;;;;;;22.40;47.80;100731.34;4963384;28;20237;-59
2022/07/31 05:20:35;;;;;;;8.43;3.00;;;;;;;22.42;48.20;100733.84;4965291;28;20210;-56
2022/07/31 05:23:03;;;;;;;5.00;2.63;;;;;;;22.47;48.36;100734.81;4966050;28;20217;-59
2022/07/31 05:25:33;;;;;;;8.53;3.23;;;;;;;22.50;47.92;100744.38;4963092;28;20215;-59
2022/07/31 05:28:01;;;;;;;9.57;3.57;;;;;;;22.46;47.58;100740.44;4965045;28;20233;-56
2022/07/31 05:30:29;;;;;;;7.27;3.33;;;;;;;22.48;47.73;100741.88;4965611;28;20211;-60
2022/07/31 05:32:58;;;;;;;7.73;3.27;;;;;;;22.43;47.82;100740.88;4964128;28;20645;-59
2022/07/31 05:35:25;;;;;;;10.30;3.37;;;;;;;22.38;48.16;100746.13;4966315;28;20221;-60
2022/07/31 05:37:54;;;;;;;7.63;3.43;;;;;;;22.35;47.83;100739.28;4965146;28;20246;-59
2022/07/31 05:40:22;;;;;;;6.70;3.50;;;;;;;22.32;48.08;100742.44;4965696;28;20592;-58
2022/07/31 05:42:50;;;;;;;8.73;3.33;;;;;;;22.37;47.89;100744.47;4968473;28;20210;-59
2022/07/31 05:45:18;;;;;;;6.83;3.10;;;;;;;22.42;48.30;100742.78;4968785;28;20215;-58
2022/07/31 05:47:46;;;;;;;4.43;3.10;;;;;;;22.44;47.81;100737.13;4958630;28;20203;-57
2022/07/31 05:50:14;;;;;;;6.83;2.80;;;;;;;22.50;46.91;100731.69;4970936;28;20220;-58
2022/07/31 05:52:42;;;;;;;10.47;2.90;;;;;;;22.46;47.21;100733.16;4967244;28;20238;-59
2022/07/31 05:55:11;;;;;;;8.77;3.30;;;;;;;22.47;47.18;100734.81;4972451;28;20293;-58
2022/07/31 05:57:39;;;;;;;5.00;2.77;;;;;;;22.58;47.12;100732.47;4969951;28;20235;-58
2022/07/31 06:00:08;;;;;;;4.10;2.90;;;;;;;22.60;47.07;100733.91;4968091;28;20203;-55
2022/07/31 06:02:36;;;;;;;5.70;3.27;;;;;;;22.66;47.16;100724.91;4971559;28;20226;-55
2022/07/31 06:05:05;;;;;;;6.10;3.20;;;;;;;22.70;47.06;100718.00;4972735;28;20206;-59
2022/07/31 06:07:33;;;;;;;7.40;2.97;;;;;;;22.77;46.75;100718.81;4968096;28;20604;-59
2022/07/31 06:10:01;;;;;;;5.70;2.80;;;;;;;22.84;46.83;100719.59;4968706;28;20211;-59
2022/07/31 06:12:30;;;;;;;8.63;3.20;;;;;;;22.97;46.71;100725.91;4982462;28;20631;-59
2022/07/31 06:14:59;;;;;;;5.43;2.93;;;;;;;22.99;46.53;100721.09;4987255;28;20221;-59
2022/07/31 06:17:27;;;;;;;5.53;3.30;;;;;;;23.04;46.54;100729.38;4982536;28;20248;-59
2022/07/31 06:20:11;;;;;;;7.87;2.97;;;;;;;23.04;46.81;100726.69;4984160;28;20216;-59
2022/07/31 06:22:40;;;;;;;6.00;3.20;;;;;;;23.09;46.70;100726.81;4986082;28;20202;-59
2022/07/31 06:25:09;;;;;;;6.57;3.53;;;;;;;23.10;46.90;100733.88;4985747;28;20302;-60
2022/07/31 06:27:40;;;;;;;6.63;3.37;;;;;;;23.15;47.33;100734.84;4987184;28;20220;-59
2022/07/31 06:30:10;;;;;;;7.43;3.40;;;;;;;23.14;47.66;100737.78;4985416;28;20206;-59
2022/07/31 06:32:37;;;;;;;6.13;3.37;;;;;;;23.19;47.08;100746.06;4985571;28;20210;-58
2022/07/31 06:35:06;;;;;;;6.20;3.53;;;;;;;23.17;47.83;100745.47;4982434;28;20218;-59
2022/07/31 06:37:34;;;;;;;5.67;3.40;;;;;;;23.16;48.40;100751.91;4986415;28;20648;-59
2022/07/31 06:40:03;;;;;;;8.67;3.80;;;;;;;23.14;48.70;100745.91;4985126;28;20209;-59
2022/07/31 06:42:30;;;;;;;9.40;3.93;;;;;;;23.11;48.57;100746.38;4981931;28;20792;-57
2022/07/31 06:45:00;;;;;;;11.07;3.37;;;;;;;23.14;48.33;100752.13;4977693;28;21057;-60
2022/07/31 06:47:27;;;;;;;6.07;3.10;;;;;;;23.26;47.82;100744.13;4981087;28;20222;-64
2022/07/31 06:49:56;;;;;;;8.33;3.07;;;;;;;23.39;48.01;100743.16;4980585;28;20210;-60
2022/07/31 06:52:23;;;;;;;5.53;3.50;;;;;;;23.47;47.73;100740.97;4980468;28;20210;-59
2022/07/31 06:54:51;;;;;;;7.83;3.17;;;;;;;23.52;47.73;100738.44;4985252;28;20300;-60
2022/07/31 06:57:19;;;;;;;7.13;3.80;;;;;;;23.62;47.45;100749.56;4981483;28;20206;-59
2022/07/31 06:59:47;;;;;;;7.33;3.43;;;;;;;23.63;47.83;100744.97;4986436;28;20571;-59
2022/07/31 07:02:16;;;;;;;6.70;3.50;;;;;;;23.65;47.31;100742.88;4984506;28;20246;-60
2022/07/31 07:04:44;;;;;;;9.73;3.50;;;;;;;23.67;47.27;100746.16;4983909;28;20494;-56
2022/07/31 07:07:34;;;;;;;9.07;4.00;;;;;;;23.71;47.84;100744.66;4983979;28;20686;-55
2022/07/31 07:10:02;;;;;;;7.13;3.77;;;;;;;23.78;47.88;100742.69;4985104;28;20551;-58
2022/07/31 07:12:30;;;;;;;7.97;3.63;;;;;;;23.84;47.86;100749.06;4965687;28;20265;-57
2022/07/31 07:14:58;;;;;;;6.37;2.93;;;;;;;23.90;47.47;100750.88;4963622;28;20334;-58
2022/07/31 07:17:27;;;;;;;10.57;4.10;;;;;;;23.87;46.22;100740.50;4962486;28;20215;-58
2022/07/31 07:19:56;;;;;;;7.10;3.83;;;;;;;23.81;46.46;100742.25;4966294;28;20320;-58
2022/07/31 07:22:24;;;;;;;10.03;3.50;;;;;;;23.86;45.75;100731.56;4962064;28;20213;-58
2022/07/31 07:24:59;;;;;;;6.53;3.43;;;;;;;23.86;46.05;100734.25;4963020;28;20230;-59
2022/07/31 07:27:26;;;;;;;8.07;3.57;;;;;;;23.88;46.09;100736.75;4962671;28;20309;-59
2022/07/31 07:29:54;;;;;;;8.00;3.30;;;;;;;23.90;46.39;100731.94;4968600;28;20301;-59
2022/07/31 07:32:22;;;;;;;9.33;3.40;;;;;;;23.99;46.11;100730.56;4970770;28;20305;-59
2022/07/31 07:34:51;;;;;;;6.23;3.07;;;;;;;24.13;46.19;100728.47;4965835;28;20229;-59
2022/07/31 07:37:27;;;;;;;8.40;3.17;;;;;;;24.30;45.49;100730.31;4963307;28;20210;-59
2022/07/31 07:39:56;;;;;;;8.30;3.30;;;;;;;24.38;45.51;100721.84;4971342;28;20594;-60
2022/07/31 07:42:30;;;;;;;8.97;2.83;;;;;;;24.51;45.33;100720.84;4964437;28;20213;-60
2022/07/31 07:44:58;;;;;;;7.20;3.20;;;;;;;24.51;44.35;100710.00;4965698;28;20248;-58
2022/07/31 07:47:27;;;;;;;7.55;3.25;;;;;;;24.56;43.82;100711.97;4963589;28;20600;-60
2022/07/31 07:50:16;;;;;;;5.10;2.80;;;;;;;24.61;43.86;100714.84;4969190;28;20652;-60
2022/07/31 07:52:44;;;;;;;7.72;3.00;;;;;;;24.64;43.07;100717.06;4969207;28;20302;-60
2022/07/31 07:55:12;;;;;;;5.95;3.22;;;;;;;24.73;43.14;100710.22;4966901;28;20847;-59
2022/07/31 07:57:43;;;;;;;6.68;3.10;;;;;;;24.90;43.00;100707.63;4966409;28;20301;-58
2022/07/31 08:00:13;;;;;;;7.68;2.70;;;;;;;25.06;42.32;100710.50;4961902;28;20994;-60
2022/07/31 08:02:41;;;;;;;5.65;3.08;;;;;;;25.17;42.06;100711.53;4961939;28;20726;-59
2022/07/31 08:05:09;;;;;;;4.88;3.00;;;;;;;25.27;42.30;100705.50;4964191;28;20310;-59
2022/07/31 08:07:39;;;;;;;6.20;3.00;;;;;;;25.26;42.52;100707.38;4959748;28;20234;-59
2022/07/31 08:10:09;;;;;;;5.07;2.72;;;;;;;25.24;42.66;100697.84;4962550;28;20290;-60
2022/07/31 08:12:37;;;;;;;5.05;2.85;;;;;;;25.35;42.14;100700.53;4980584;28;20248;-59
2022/07/31 08:15:06;;;;;;;4.35;2.85;;;;;;;25.44;42.49;100698.25;4984327;28;20206;-59
2022/07/31 08:17:34;;;;;;;9.43;2.92;;;;;;;25.66;41.98;100696.59;4982701;28;20394;-59
2022/07/31 08:20:02;;;;;;;6.35;3.13;;;;;;;25.84;41.47;100693.69;4983175;28;20575;-58
2022/07/31 08:22:30;;;;;;;5.70;3.08;;;;;;;26.01;41.46;100698.31;4981938;28;20221;-59
2022/07/31 08:25:07;;;;;;;7.40;3.17;;;;;;;26.31;39.68;100687.19;4981900;28;20206;-60
2022/07/31 08:27:41;;;;;;;6.25;2.85;;;;;;;26.33;40.01;100694.03;4983318;28;20395;-59
2022/07/31 08:30:10;;;;;;;7.32;3.28;;;;;;;26.29;40.34;100690.16;4984201;28;20523;-60
2022/07/31 08:32:38;;;;;;;5.70;3.25;;;;;;;26.34;40.65;100686.69;4987651;28;20218;-60
2022/07/31 08:35:07;;;;;;;3.67;2.53;;;;;;;26.37;40.69;100687.03;4987230;28;20206;-59
2022/07/31 08:37:35;;;;;;;8.35;3.47;;;;;;;26.40;39.71;100682.97;4980492;28;20259;-60
2022/07/31 08:40:25;;;;;;;5.38;2.80;;;;;;;26.55;39.21;100678.63;4980664;28;20718;-62
2022/07/31 08:42:54;;;;;;;4.70;2.97;;;;;;;26.53;39.02;100680.78;4983079;28;20225;-60
2022/07/31 08:45:22;;;;;;;9.95;3.20;;;;;;;26.49;39.37;100678.78;4979986;28;20730;-60
2022/07/31 08:47:56;;;;;;;6.55;2.75;;;;;;;26.40;39.06;100672.94;4983780;28;20238;-58
2022/07/31 08:50:31;;;;;;;5.75;3.15;;;;;;;26.36;39.20;100674.50;4985838;28;20429;-59
2022/07/31 08:53:03;;;;;;;8.25;3.25;;;;;;;26.36;39.47;100674.50;4979817;28;20198;-58
2022/07/31 08:55:33;;;;;;;7.38;3.00;;;;;;;26.50;38.73;100670.38;4983082;28;20584;-59
2022/07/31 08:58:21;;;;;;;7.78;2.90;;;;;;;26.75;38.83;100666.38;4981648;28;20214;-59
2022/07/31 09:00:53;;;;;;;8.25;2.70;;;;;;;26.96;38.67;100668.38;4974059;28;20308;-60
2022/07/31 09:03:22;;;;;;;11.48;3.05;;;;;;;27.27;37.62;100658.69;4983927;28;20213;-58
2022/07/31 09:05:50;;;;;;;8.27;2.80;;;;;;;27.35;37.79;100658.28;4982129;28;20313;-61
2022/07/31 09:08:19;;;;;;;8.00;2.70;;;;;;;27.56;37.49;100667.50;4984625;28;20595;-60
2022/07/31 09:10:48;;;;;;;5.85;2.70;;;;;;;27.74;36.19;100659.00;4985347;28;20308;-59
2022/07/31 09:13:18;;;;;;;8.50;3.00;;;;;;;28.13;35.83;100656.09;4991712;28;20209;-59
2022/07/31 09:15:46;;;;;;;6.43;3.33;;;;;;;28.22;35.19;100655.41;4989306;28;20210;-59
2022/07/31 09:18:18;;;;;;;5.78;2.50;;;;;;;28.17;35.63;100649.91;4990301;28;20216;-59
2022/07/31 09:20:56;;;;;;;5.75;2.72;;;;;;;28.12;35.50;100644.38;4986719;28;20232;-59
2022/07/31 09:23:25;;;;;;;5.38;2.72;;;;;;;28.15;34.84;100643.84;4991294;28;20224;-59
2022/07/31 09:25:56;;;;;;;6.00;3.00;;;;;;;28.12;35.28;100649.00;4990536;28;20539;-59
2022/07/31 09:28:35;;;;;;;6.95;3.28;;;;;;;28.00;35.98;100636.38;4990264;28;20209;-59
2022/07/31 09:31:04;;;;;;;5.03;2.70;;;;;;;27.93;36.05;100634.94;4991919;28;20228;-58
2022/07/31 09:33:33;;;;;;;5.97;3.00;;;;;;;27.86;36.07;100640.59;4989163;28;20217;-59
2022/07/31 09:36:00;;;;;;;6.72;2.67;;;;;;;27.72;36.08;100633.91;4987070;28;20212;-59
2022/07/31 09:38:34;;;;;;;7.82;2.72;;;;;;;27.55;36.31;100628.56;4987955;28;20210;-59
2022/07/31 09:41:10;;;;;;;7.15;2.83;;;;;;;27.42;36.99;100628.13;4993575;28;20325;-60
2022/07/31 09:43:59;;;;;;;5.60;2.53;;;;;;;27.38;36.79;100632.41;4985537;28;20311;-58
2022/07/31 09:46:38;;;;;;;4.22;2.78;;;;;;;27.32;36.88;100632.38;4992511;28;20338;-58
2022/07/31 09:49:06;;;;;;;4.13;2.75;;;;;;;27.24;36.87;100627.38;4991076;28;20301;-59
2022/07/31 09:51:38;;;;;;;8.15;3.38;;;;;;;27.23;36.98;100628.44;4990268;28;20213;-60
2022/07/31 09:54:06;;;;;;;8.23;2.72;;;;;;;27.15;37.26;100634.34;4991275;28;20214;-59
2022/07/31 09:56:35;;;;;;;5.25;2.55;;;;;;;27.15;37.06;100626.16;4992442;28;20206;-59
2022/07/31 09:59:05;;;;;;;4.88;2.80;;;;;;;27.17;37.59;100621.31;4985568;28;20566;-59
2022/07/31 10:01:35;;;;;;;8.63;3.15;;;;;;;27.19;37.63;100618.31;4986311;28;21840;-58
2022/07/31 10:04:05;;;;;;;5.30;3.15;;;;;;;27.21;37.68;100622.44;4992156;28;20223;-59
2022/07/31 10:06:35;;;;;;;5.00;2.80;;;;;;;27.17;37.50;100615.84;4989912;28;20216;-59
2022/07/31 10:09:04;;;;;;;4.40;2.70;;;;;;;27.15;37.84;100612.56;4991627;28;20648;-59
2022/07/31 10:11:33;;;;;;;7.82;3.22;;;;;;;27.15;38.27;100611.75;4985237;28;20242;-59
2022/07/31 10:14:04;;;;;;;7.50;2.55;;;;;;;27.17;37.88;100610.41;4985490;28;20304;-59
2022/07/31 10:16:36;;;;;;;5.82;2.97;;;;;;;27.16;38.40;100610.66;4985352;28;20201;-58
2022/07/31 10:19:10;;;;;;;5.13;2.70;;;;;;;27.16;38.50;100606.03;4989815;28;20206;-58
2022/07/31 10:21:40;;;;;;;3.90;2.30;;;;;;;27.26;38.64;100605.34;4992599;28;20809;-59
2022/07/31 10:24:10;;;;;;;8.57;2.95;;;;;;;27.28;38.34;100601.28;4989475;28;20781;-58
2022/07/31 10:26:38;;;;;;;7.13;2.92;;;;;;;27.37;38.70;100604.38;4988095;28;20228;-58
2022/07/31 10:29:28;;;;;;;5.22;2.72;;;;;;;27.47;38.46;100600.94;4989104;28;20198;-59
2022/07/31 10:31:59;;;;;;;7.38;2.28;;;;;;;27.69;38.06;100597.13;4991330;28;20667;-59
2022/07/31 10:34:28;;;;;;;6.07;2.78;;;;;;;27.76;38.43;100586.00;4989099;28;20214;-58
2022/07/31 10:37:03;;;;;;;6.18;2.75;;;;;;;28.15;37.74;100586.59;4988385;28;20347;-60
2022/07/31 10:39:45;;;;;;;3.90;2.50;;;;;;;28.70;36.90;100577.16;4989941;28;20242;-59
2022/07/31 10:42:19;;;;;;;5.03;2.78;;;;;;;29.12;36.10;100572.44;4991037;28;20214;-59
2022/07/31 10:44:53;;;;;;;4.28;2.38;;;;;;;29.44;35.88;100574.22;4986098;28;20206;-58
2022/07/31 10:47:21;;;;;;;9.50;3.45;;;;;;;29.82;35.43;100565.50;4989610;28;20214;-59
2022/07/31 10:49:49;;;;;;;12.18;3.40;;;;;;;29.97;35.49;100563.91;4988749;28;20210;-58
2022/07/31 10:52:27;;;;;;;5.00;3.08;;;;;;;30.21;34.79;100563.06;4987916;28;20206;-58
2022/07/31 10:54:57;;;;;;;8.25;3.20;;;;;;;30.19;34.60;100559.78;4987969;28;20637;-58
2022/07/31 10:57:27;;;;;;;4.38;2.45;;;;;;;30.29;34.31;100543.34;4988526;28;20582;-58
2022/07/31 10:59:56;;;;;;;6.85;2.55;;;;;;;30.51;34.50;100544.97;4990247;28;20230;-59
2022/07/31 11:02:29;;;;;;;4.38;2.92;;;;;;;30.77;34.42;100532.03;4987914;28;20202;-59
2022/07/31 11:05:13;;;;;;;5.70;2.65;;;;;;;30.80;34.77;100524.06;4984979;28;20214;-57
2022/07/31 11:07:41;;;;;;;5.45;2.72;;;;;;;30.77;33.82;100526.56;4986788;28;20202;-58
2022/07/31 11:10:11;;;;;;;5.82;2.88;;;;;;;30.75;34.07;100513.16;4990963;28;20309;-59
2022/07/31 11:12:39;;;;;;;4.95;2.80;;;;;;;30.75;34.28;100506.84;4987832;28;20710;-58
2022/07/31 11:15:21;;;;;;;9.48;3.03;;;;;;;30.83;33.76;100509.81;4988272;28;20214;-59
2022/07/31 11:17:49;;;;;;;5.72;3.25;;;;;;;30.88;33.94;100504.31;4979814;28;20582;-59
2022/07/31 11:20:37;;;;;;;5.53;2.63;;;;;;;31.22;32.81;100489.94;4987077;28;20230;-59
2022/07/31 11:23:07;;;;;;;4.43;2.65;;;;;;;31.04;33.71;100497.66;4988114;28;20210;-59
2022/07/31 11:25:37;;;;;;;4.50;2.45;;;;;;;30.87;33.51;100494.44;4983520;28;20220;-60
2022/07/31 11:28:13;;;;;;;9.40;2.60;;;;;;;30.80;32.94;100491.22;4987538;28;20216;-56
2022/07/31 11:30:50;;;;;;;6.47;2.35;;;;;;;30.76;32.85;100498.38;4987937;28;20213;-58
2022/07/31 11:33:44;;;;;;;6.82;2.63;;;;;;;30.74;32.77;100500.56;4987192;28;20229;-59
2022/07/31 11:36:14;;;;;;;7.40;2.60;;;;;;;30.61;32.79;100501.97;4973983;28;20337;-59
2022/07/31 11:38:43;;;;;;;9.10;2.75;;;;;;;30.41;33.36;100498.47;4987970;28;20592;-59
2022/07/31 11:41:14;;;;;;;5.40;2.10;;;;;;;30.58;33.01;100488.03;4991393;28;20214;-59